sensor_id;sensor_type;location;lat;lon;timestamp;pressure;altitude;pressure_sealevel;temperature;humidity
36726;BME280;44936;52.086;5.150;2023-07-30T00:02:14;101382.59;;;16.61;100.00
36726;BME280;44936;52.086;5.150;2023-07-30T00:04:40;101381.78;;;16.54;100.00
36726;BME280;44936;52.086;5.150;2023-07-30T00:07:05;101374.75;;;16.50;100.00
36726;BME280;44936;52.086;5.150;2023-07-30T00:09:31;101387.13;;;16.48;100.00
36726;BME280;44936;52.086;5.150;2023-07-30T00:11:56;101388.09;;;16.44;100.00
36726;BME280;44936;52.086;5.150;2023-07-30T00:14:21;101391.50;;;16.51;100.00
36726;BME280;44936;52.086;5.150;2023-07-30T00:16:47;101377.44;;;16.47;100.00
36726;BME280;44936;52.086;5.150;2023-07-30T00:19:12;101369.72;;;16.30;100.00
36726;BME280;44936;52.086;5.150;2023-07-30T00:21:37;101389.91;;;16.39;100.00
36726;BME280;44936;52.086;5.150;2023-07-30T00:24:03;101386.31;;;16.43;100.00
36726;BME280;44936;52.086;5.150;2023-07-30T00:26:28;101352.03;;;16.32;100.00
36726;BME280;44936;52.086;5.150;2023-07-30T00:28:55;101377.50;;;16.41;100.00
36726;BME280;44936;52.086;5.150;2023-07-30T00:31:20;101374.91;;;16.39;100.00
36726;BME280;44936;52.086;5.150;2023-07-30T00:33:45;101368.84;;;16.30;100.00
36726;BME280;44936;52.086;5.150;2023-07-30T00:36:11;101360.06;;;16.26;100.00
36726;BME280;44936;52.086;5.150;2023-07-30T00:38:36;101371.38;;;16.39;100.00
36726;BME280;44936;52.086;5.150;2023-07-30T00:41:01;101348.44;;;16.38;100.00
36726;BME280;44936;52.086;5.150;2023-07-30T00:43:27;101346.75;;;16.31;100.00
36726;BME280;44936;52.086;5.150;2023-07-30T00:45:52;101355.50;;;16.37;100.00
36726;BME280;44936;52.086;5.150;2023-07-30T00:48:18;101351.19;;;16.30;100.00
36726;BME280;44936;52.086;5.150;2023-07-30T00:50:44;101352.03;;;16.32;100.00
36726;BME280;44936;52.086;5.150;2023-07-30T00:53:11;101352.09;;;16.28;100.00
36726;BME280;44936;52.086;5.150;2023-07-30T00:55:39;101348.72;;;16.15;100.00
36726;BME280;44936;52.086;5.150;2023-07-30T00:58:04;101354.00;;;16.18;100.00
36726;BME280;44936;52.086;5.150;2023-07-30T01:00:30;101352.16;;;16.23;100.00
36726;BME280;44936;52.086;5.150;2023-07-30T01:02:57;101342.44;;;16.24;100.00
36726;BME280;44936;52.086;5.150;2023-07-30T01:05:22;101341.59;;;16.22;100.00
36726;BME280;44936;52.086;5.150;2023-07-30T01:07:48;101342.53;;;16.18;100.00
36726;BME280;44936;52.086;5.150;2023-07-30T01:10:13;101337.13;;;16.24;100.00
36726;BME280;44936;52.086;5.150;2023-07-30T01:12:40;101334.66;;;16.11;100.00
36726;BME280;44936;52.086;5.150;2023-07-30T01:15:07;101338.03;;;16.23;100.00
36726;BME280;44936;52.086;5.150;2023-07-30T01:17:33;101325.66;;;16.26;100.00
36726;BME280;44936;52.086;5.150;2023-07-30T01:19:58;101337.13;;;16.27;100.00
36726;BME280;44936;52.086;5.150;2023-07-30T01:22:24;101334.53;;;16.22;100.00
36726;BME280;44936;52.086;5.150;2023-07-30T01:24:49;101341.59;;;16.22;100.00
36726;BME280;44936;52.086;5.150;2023-07-30T01:27:27;101311.00;;;15.99;100.00
36726;BME280;44936;52.086;5.150;2023-07-30T01:30:03;101337.19;;;16.21;100.00
36726;BME280;44936;52.086;5.150;2023-07-30T01:32:31;101355.63;;;16.28;100.00
36726;BME280;44936;52.086;5.150;2023-07-30T01:34:57;101338.78;;;16.32;100.00
36726;BME280;44936;52.086;5.150;2023-07-30T01:37:23;101346.75;;;16.31;100.00
36726;BME280;44936;52.086;5.150;2023-07-30T01:39:49;101329.31;;;16.18;100.00
36726;BME280;44936;52.086;5.150;2023-07-30T01:42:16;101346.84;;;16.23;100.00
36726;BME280;44936;52.086;5.150;2023-07-30T01:44:41;101354.69;;;16.32;100.00
36726;BME280;44936;52.086;5.150;2023-07-30T01:47:07;101335.41;;;16.21;100.00
36726;BME280;44936;52.086;5.150;2023-07-30T01:49:32;101341.44;;;16.32;100.00
36726;BME280;44936;52.086;5.150;2023-07-30T01:51:57;101345.84;;;16.35;100.00
36726;BME280;44936;52.086;5.150;2023-07-30T01:54:23;101338.91;;;16.23;100.00
36726;BME280;44936;52.086;5.150;2023-07-30T01:56:48;101346.84;;;16.26;100.00
36726;BME280;44936;52.086;5.150;2023-07-30T01:59:13;101346.72;;;16.34;100.00
36726;BME280;44936;52.086;5.150;2023-07-30T02:01:41;101345.09;;;16.22;100.00
36726;BME280;44936;52.086;5.150;2023-07-30T02:04:06;101351.22;;;16.27;100.00
36726;BME280;44936;52.086;5.150;2023-07-30T02:06:31;101347.72;;;16.24;100.00
36726;BME280;44936;52.086;5.150;2023-07-30T02:08:57;101341.59;;;16.20;100.00
36726;BME280;44936;52.086;5.150;2023-07-30T02:11:22;101338.94;;;16.22;100.00
36726;BME280;44936;52.086;5.150;2023-07-30T02:13:47;101338.00;;;16.24;100.00
36726;BME280;44936;52.086;5.150;2023-07-30T02:16:13;101338.88;;;16.25;100.00
36726;BME280;44936;52.086;5.150;2023-07-30T02:18:38;101333.56;;;16.29;100.00
36726;BME280;44936;52.086;5.150;2023-07-30T02:21:03;101315.13;;;16.22;100.00
36726;BME280;44936;52.086;5.150;2023-07-30T02:23:29;101330.06;;;16.24;100.00
36726;BME280;44936;52.086;5.150;2023-07-30T02:25:54;101325.63;;;16.29;100.00
36726;BME280;44936;52.086;5.150;2023-07-30T02:28:19;101322.13;;;16.24;100.00
36726;BME280;44936;52.086;5.150;2023-07-30T02:30:45;101323.88;;;16.25;100.00
36726;BME280;44936;52.086;5.150;2023-07-30T02:33:10;101308.13;;;16.18;100.00
36726;BME280;44936;52.086;5.150;2023-07-30T02:35:35;101308.91;;;16.24;100.00
36726;BME280;44936;52.086;5.150;2023-07-30T02:38:01;101298.41;;;16.18;100.00
36726;BME280;44936;52.086;5.150;2023-07-30T02:40:26;101303.63;;;16.26;100.00
36726;BME280;44936;52.086;5.150;2023-07-30T02:42:51;101303.59;;;16.24;100.00
36726;BME280;44936;52.086;5.150;2023-07-30T02:45:17;101300.25;;;16.11;100.00
36726;BME280;44936;52.086;5.150;2023-07-30T02:47:43;101286.19;;;16.06;100.00
36726;BME280;44936;52.086;5.150;2023-07-30T02:50:08;101282.63;;;16.10;100.00
36726;BME280;44936;52.086;5.150;2023-07-30T02:52:34;101278.31;;;16.03;100.00
36726;BME280;44936;52.086;5.150;2023-07-30T02:54:59;101264.13;;;16.07;100.00
36726;BME280;44936;52.086;5.150;2023-07-30T02:57:24;101253.69;;;15.97;100.00
36726;BME280;44936;52.086;5.150;2023-07-30T02:59:50;101234.22;;;16.02;100.00
36726;BME280;44936;52.086;5.150;2023-07-30T03:02:15;101234.25;;;16.01;100.00
36726;BME280;44936;52.086;5.150;2023-07-30T03:04:40;101210.34;;;16.05;100.00
36726;BME280;44936;52.086;5.150;2023-07-30T03:07:08;101205.03;;;16.08;100.00
36726;BME280;44936;52.086;5.150;2023-07-30T03:09:33;101187.50;;;15.98;100.00
36726;BME280;44936;52.086;5.150;2023-07-30T03:11:59;101183.16;;;15.96;100.00
36726;BME280;44936;52.086;5.150;2023-07-30T03:14:24;101185.75;;;16.00;100.00
36726;BME280;44936;52.086;5.150;2023-07-30T03:16:49;101186.63;;;16.01;100.00
36726;BME280;44936;52.086;5.150;2023-07-30T03:19:15;101171.69;;;15.95;100.00
36726;BME280;44936;52.086;5.150;2023-07-30T03:21:41;101176.97;;;15.97;100.00
36726;BME280;44936;52.086;5.150;2023-07-30T03:24:06;101177.84;;;15.97;100.00
36726;BME280;44936;52.086;5.150;2023-07-30T03:26:32;101182.22;;;15.98;100.00
36726;BME280;44936;52.086;5.150;2023-07-30T03:28:57;101188.53;;;15.91;100.00
36726;BME280;44936;52.086;5.150;2023-07-30T03:31:22;101192.03;;;15.90;100.00
36726;BME280;44936;52.086;5.150;2023-07-30T03:33:48;101189.44;;;15.87;100.00
36726;BME280;44936;52.086;5.150;2023-07-30T03:36:13;101180.56;;;15.93;100.00
36726;BME280;44936;52.086;5.150;2023-07-30T03:38:40;101166.63;;;15.81;100.00
36726;BME280;44936;52.086;5.150;2023-07-30T03:41:06;101172.75;;;15.83;100.00
36726;BME280;44936;52.086;5.150;2023-07-30T03:43:35;101173.66;;;15.81;100.00
36726;BME280;44936;52.086;5.150;2023-07-30T03:46:00;101175.28;;;15.91;100.00
36726;BME280;44936;52.086;5.150;2023-07-30T03:48:26;101176.25;;;15.85;100.00
36726;BME280;44936;52.086;5.150;2023-07-30T03:50:55;101182.47;;;15.81;100.00
36726;BME280;44936;52.086;5.150;2023-07-30T03:53:21;101159.56;;;15.82;100.00
36726;BME280;44936;52.086;5.150;2023-07-30T03:55:46;101157.66;;;15.92;100.00
36726;BME280;44936;52.086;5.150;2023-07-30T03:58:12;101148.84;;;15.91;100.00
36726;BME280;44936;52.086;5.150;2023-07-30T04:00:37;101131.25;;;15.87;100.00
36726;BME280;44936;52.086;5.150;2023-07-30T04:03:03;101128.59;;;15.87;100.00
36726;BME280;44936;52.086;5.150;2023-07-30T04:05:29;101132.97;;;15.90;100.00
36726;BME280;44936;52.086;5.150;2023-07-30T04:07:55;101141.75;;;15.93;100.00
36726;BME280;44936;52.086;5.150;2023-07-30T04:10:20;101140.03;;;15.89;100.00
36726;BME280;44936;52.086;5.150;2023-07-30T04:12:45;101152.34;;;15.93;100.00
36726;BME280;44936;52.086;5.150;2023-07-30T04:15:10;101154.78;;;16.05;100.00
36726;BME280;44936;52.086;5.150;2023-07-30T04:17:36;101128.44;;;15.99;100.00
36726;BME280;44936;52.086;5.150;2023-07-30T04:20:02;101141.53;;;16.08;100.00
36726;BME280;44936;52.086;5.150;2023-07-30T04:22:29;101157.34;;;16.11;100.00
36726;BME280;44936;52.086;5.150;2023-07-30T04:24:54;101146.16;;;15.93;100.00
36726;BME280;44936;52.086;5.150;2023-07-30T04:27:20;101150.59;;;15.92;100.00
36726;BME280;44936;52.086;5.150;2023-07-30T04:29:45;101161.88;;;16.03;100.00
36726;BME280;44936;52.086;5.150;2023-07-30T04:32:10;101159.16;;;16.09;100.00
36726;BME280;44936;52.086;5.150;2023-07-30T04:34:35;101155.63;;;16.10;100.00
36726;BME280;44936;52.086;5.150;2023-07-30T04:37:01;101157.34;;;16.13;100.00
36726;BME280;44936;52.086;5.150;2023-07-30T04:39:27;101166.97;;;16.19;100.00
36726;BME280;44936;52.086;5.150;2023-07-30T04:41:53;101179.22;;;16.24;100.00
36726;BME280;44936;52.086;5.150;2023-07-30T04:44:18;101183.59;;;16.27;100.00
36726;BME280;44936;52.086;5.150;2023-07-30T04:46:43;101202.88;;;16.36;100.00
36726;BME280;44936;52.086;5.150;2023-07-30T04:49:09;101190.53;;;16.34;100.00
36726;BME280;44936;52.086;5.150;2023-07-30T04:51:34;101196.72;;;16.34;100.00
36726;BME280;44936;52.086;5.150;2023-07-30T04:53:59;101220.44;;;16.40;100.00
36726;BME280;44936;52.086;5.150;2023-07-30T04:56:25;101213.28;;;16.47;100.00
36726;BME280;44936;52.086;5.150;2023-07-30T04:58:51;101233.47;;;16.56;100.00
36726;BME280;44936;52.086;5.150;2023-07-30T05:01:17;101249.38;;;16.54;100.00
36726;BME280;44936;52.086;5.150;2023-07-30T05:03:42;101258.22;;;16.53;100.00
36726;BME280;44936;52.086;5.150;2023-07-30T05:06:07;101280.25;;;16.55;100.00
36726;BME280;44936;52.086;5.150;2023-07-30T05:08:33;101290.78;;;16.58;100.00
36726;BME280;44936;52.086;5.150;2023-07-30T05:10:58;101303.94;;;16.64;100.00
36726;BME280;44936;52.086;5.150;2023-07-30T05:13:24;101282.06;;;16.50;100.00
36726;BME280;44936;52.086;5.150;2023-07-30T05:15:49;101317.19;;;16.64;100.00
36726;BME280;44936;52.086;5.150;2023-07-30T05:18:14;101306.56;;;16.70;100.00
36726;BME280;44936;52.086;5.150;2023-07-30T05:20:40;101317.16;;;16.70;100.00
36726;BME280;44936;52.086;5.150;2023-07-30T05:23:05;101321.44;;;16.79;100.00
36726;BME280;44936;52.086;5.150;2023-07-30T05:25:32;101333.91;;;16.71;100.00
36726;BME280;44936;52.086;5.150;2023-07-30T05:27:57;101328.59;;;16.73;100.00
36726;BME280;44936;52.086;5.150;2023-07-30T05:30:22;101341.69;;;16.82;100.00
36726;BME280;44936;52.086;5.150;2023-07-30T05:32:48;101338.31;;;16.72;100.00
36726;BME280;44936;52.086;5.150;2023-07-30T05:35:13;101338.34;;;16.70;100.00
36726;BME280;44936;52.086;5.150;2023-07-30T05:37:38;101347.91;;;16.81;100.00
36726;BME280;44936;52.086;5.150;2023-07-30T05:40:04;101352.38;;;16.76;100.00
36726;BME280;44936;52.086;5.150;2023-07-30T05:42:30;101340.03;;;16.75;100.00
36726;BME280;44936;52.086;5.150;2023-07-30T05:44:55;101349.56;;;16.86;100.00
36726;BME280;44936;52.086;5.150;2023-07-30T05:47:20;101368.94;;;16.90;100.00
36726;BME280;44936;52.086;5.150;2023-07-30T05:49:46;101370.47;;;17.05;100.00
36726;BME280;44936;52.086;5.150;2023-07-30T05:52:11;101382.81;;;17.09;100.00
36726;BME280;44936;52.086;5.150;2023-07-30T05:54:36;101395.16;;;17.10;100.00
36726;BME280;44936;52.086;5.150;2023-07-30T05:57:02;101411.03;;;17.11;100.00
36726;BME280;44936;52.086;5.150;2023-07-30T05:59:27;101412.75;;;17.15;100.00
36726;BME280;44936;52.086;5.150;2023-07-30T06:01:52;101430.22;;;17.27;100.00
36726;BME280;44936;52.086;5.150;2023-07-30T06:04:18;101433.22;;;17.04;100.00
36726;BME280;44936;52.086;5.150;2023-07-30T06:06:43;101442.75;;;17.17;100.00
36726;BME280;44936;52.086;5.150;2023-07-30T06:09:08;101444.31;;;17.32;100.00
36726;BME280;44936;52.086;5.150;2023-07-30T06:11:34;101445.22;;;17.30;100.00
36726;BME280;44936;52.086;5.150;2023-07-30T06:13:59;101446.88;;;17.37;100.00
36726;BME280;44936;52.086;5.150;2023-07-30T06:16:24;101455.63;;;17.43;100.00
36726;BME280;44936;52.086;5.150;2023-07-30T06:18:49;101461.81;;;17.44;100.00
36726;BME280;44936;52.086;5.150;2023-07-30T06:21:15;101467.94;;;17.46;100.00
36726;BME280;44936;52.086;5.150;2023-07-30T06:23:40;101459.16;;;17.44;100.00
36726;BME280;44936;52.086;5.150;2023-07-30T06:26:06;101480.22;;;17.53;100.00
36726;BME280;44936;52.086;5.150;2023-07-30T06:28:31;101483.53;;;17.67;100.00
36726;BME280;44936;52.086;5.150;2023-07-30T06:31:00;101491.50;;;17.67;100.00
36726;BME280;44936;52.086;5.150;2023-07-30T06:33:25;101501.22;;;17.68;100.00
36726;BME280;44936;52.086;5.150;2023-07-30T06:35:51;101501.22;;;17.70;100.00
36726;BME280;44936;52.086;5.150;2023-07-30T06:38:16;101483.53;;;17.67;100.00
36726;BME280;44936;52.086;5.150;2023-07-30T06:40:41;101500.16;;;17.80;100.00
36726;BME280;44936;52.086;5.150;2023-07-30T06:43:07;101506.50;;;17.68;100.00
36726;BME280;44936;52.086;5.150;2023-07-30T06:45:32;101502.75;;;17.85;100.00
36726;BME280;44936;52.086;5.150;2023-07-30T06:47:57;101502.81;;;17.80;100.00
36726;BME280;44936;52.086;5.150;2023-07-30T06:50:23;101515.34;;;17.70;100.00
36726;BME280;44936;52.086;5.150;2023-07-30T06:52:48;101490.78;;;17.56;100.00
36726;BME280;44936;52.086;5.150;2023-07-30T06:55:13;101497.97;;;17.48;100.00
36726;BME280;44936;52.086;5.150;2023-07-30T06:57:38;101485.47;;;17.56;100.00
36726;BME280;44936;52.086;5.150;2023-07-30T07:00:04;101479.28;;;17.55;100.00
36726;BME280;44936;52.086;5.150;2023-07-30T07:02:30;101494.25;;;17.61;100.00
36726;BME280;44936;52.086;5.150;2023-07-30T07:04:55;101473.25;;;17.46;100.00
36726;BME280;44936;52.086;5.150;2023-07-30T07:07:20;101503.16;;;17.55;100.00
36726;BME280;44936;52.086;5.150;2023-07-30T07:09:46;101509.44;;;17.51;100.00
36726;BME280;44936;52.086;5.150;2023-07-30T07:12:11;101514.72;;;17.51;100.00
36726;BME280;44936;52.086;5.150;2023-07-30T07:14:37;101521.66;;;17.60;100.00
36726;BME280;44936;52.086;5.150;2023-07-30T07:17:02;101510.91;;;17.69;100.00
36726;BME280;44936;52.086;5.150;2023-07-30T07:19:28;101525.91;;;17.73;100.00
36726;BME280;44936;52.086;5.150;2023-07-30T07:21:53;101517.00;;;17.77;100.00
36726;BME280;44936;52.086;5.150;2023-07-30T07:24:19;101530.22;;;17.80;100.00
36726;BME280;44936;52.086;5.150;2023-07-30T07:26:44;101529.13;;;17.92;100.00
36726;BME280;44936;52.086;5.150;2023-07-30T07:29:10;101546.63;;;18.05;100.00
36726;BME280;44936;52.086;5.150;2023-07-30T07:31:35;101539.44;;;18.10;100.00
36726;BME280;44936;52.086;5.150;2023-07-30T07:34:01;101545.50;;;18.20;100.00
36726;BME280;44936;52.086;5.150;2023-07-30T07:36:26;101550.00;;;18.15;100.00
36726;BME280;44936;52.086;5.150;2023-07-30T07:38:52;101572.00;;;18.23;100.00
36726;BME280;44936;52.086;5.150;2023-07-30T07:41:17;101564.66;;;18.39;100.00
36726;BME280;44936;52.086;5.150;2023-07-30T07:43:47;101583.09;;;18.47;100.00
36726;BME280;44936;52.086;5.150;2023-07-30T07:46:13;101594.56;;;18.49;100.00
36726;BME280;44936;52.086;5.150;2023-07-30T07:48:42;101584.00;;;18.44;100.00
36726;BME280;44936;52.086;5.150;2023-07-30T07:51:08;101601.38;;;18.63;100.00
36726;BME280;44936;52.086;5.150;2023-07-30T07:53:34;101600.72;;;18.51;100.00
36726;BME280;44936;52.086;5.150;2023-07-30T07:56:00;101596.38;;;18.45;100.00
36726;BME280;44936;52.086;5.150;2023-07-30T07:58:25;101593.59;;;18.53;100.00
36726;BME280;44936;52.086;5.150;2023-07-30T08:00:54;101602.31;;;18.61;100.00
36726;BME280;44936;52.086;5.150;2023-07-30T08:03:20;101593.72;;;18.45;100.00
36726;BME280;44936;52.086;5.150;2023-07-30T08:05:46;101600.78;;;18.48;100.00
36726;BME280;44936;52.086;5.150;2023-07-30T08:08:11;101597.25;;;18.46;100.00
36726;BME280;44936;52.086;5.150;2023-07-30T08:10:40;101593.72;;;18.45;100.00
36726;BME280;44936;52.086;5.150;2023-07-30T08:13:09;101602.56;;;18.46;100.00
36726;BME280;44936;52.086;5.150;2023-07-30T08:15:34;101596.31;;;18.50;100.00
36726;BME280;44936;52.086;5.150;2023-07-30T08:17:59;101599.06;;;18.44;100.00
36726;BME280;44936;52.086;5.150;2023-07-30T08:20:25;101606.88;;;18.53;100.00
36726;BME280;44936;52.086;5.150;2023-07-30T08:22:50;101592.00;;;18.43;100.00
36726;BME280;44936;52.086;5.150;2023-07-30T08:25:15;101606.00;;;18.52;100.00
36726;BME280;44936;52.086;5.150;2023-07-30T08:27:41;101605.09;;;18.53;100.00
36726;BME280;44936;52.086;5.150;2023-07-30T08:30:07;101602.47;;;18.52;100.00
36726;BME280;44936;52.086;5.150;2023-07-30T08:32:33;101612.44;;;18.39;100.00
36726;BME280;44936;52.086;5.150;2023-07-30T08:34:58;101600.66;;;18.54;100.00
36726;BME280;44936;52.086;5.150;2023-07-30T08:37:23;101597.84;;;18.66;100.00
36726;BME280;44936;52.086;5.150;2023-07-30T08:39:49;101601.34;;;18.68;100.00
36726;BME280;44936;52.086;5.150;2023-07-30T08:42:15;101605.81;;;18.64;100.00
36726;BME280;44936;52.086;5.150;2023-07-30T08:44:40;101601.78;;;18.91;100.00
36726;BME280;44936;52.086;5.150;2023-07-30T08:47:05;101575.56;;;18.72;100.00
36726;BME280;44936;52.086;5.150;2023-07-30T08:49:31;101592.84;;;18.95;100.00
36726;BME280;44936;52.086;5.150;2023-07-30T08:51:58;101616.56;;;19.05;100.00
36726;BME280;44936;52.086;5.150;2023-07-30T08:54:26;101621.28;;;18.90;100.00
36726;BME280;44936;52.086;5.150;2023-07-30T08:56:53;101624.38;;;19.14;100.00
36726;BME280;44936;52.086;5.150;2023-07-30T08:59:19;101628.13;;;19.04;100.00
36726;BME280;44936;52.086;5.150;2023-07-30T09:01:49;101609.03;;;18.83;100.00
36726;BME280;44936;52.086;5.150;2023-07-30T09:04:17;101609.59;;;19.01;100.00
36726;BME280;44936;52.086;5.150;2023-07-30T09:06:43;101598.22;;;18.92;100.00
36726;BME280;44936;52.086;5.150;2023-07-30T09:09:11;101611.38;;;18.99;100.00
36726;BME280;44936;52.086;5.150;2023-07-30T09:11:38;101629.25;;;18.92;100.00
36726;BME280;44936;52.086;5.150;2023-07-30T09:14:05;101608.19;;;18.80;100.00
36726;BME280;44936;52.086;5.150;2023-07-30T09:16:31;101624.09;;;18.83;100.00
36726;BME280;44936;52.086;5.150;2023-07-30T09:18:57;101617.03;;;18.80;100.00
36726;BME280;44936;52.086;5.150;2023-07-30T09:21:33;101626.56;;;18.93;100.00
36726;BME280;44936;52.086;5.150;2023-07-30T09:24:02;101636.94;;;19.06;100.00
36726;BME280;44936;52.086;5.150;2023-07-30T09:26:45;101631.50;;;19.12;100.00
36726;BME280;44936;52.086;5.150;2023-07-30T09:29:10;101632.22;;;19.20;100.00
36726;BME280;44936;52.086;5.150;2023-07-30T09:31:45;101629.78;;;19.09;100.00
36726;BME280;44936;52.086;5.150;2023-07-30T09:34:15;101633.22;;;19.14;100.00
36726;BME280;44936;52.086;5.150;2023-07-30T09:36:40;101643.53;;;19.31;100.00
36726;BME280;44936;52.086;5.150;2023-07-30T09:39:16;101650.00;;;19.18;100.00
36726;BME280;44936;52.086;5.150;2023-07-30T09:41:42;101651.16;;;19.05;100.00
36726;BME280;44936;52.086;5.150;2023-07-30T09:44:07;101644.34;;;18.88;100.00
36726;BME280;44936;52.086;5.150;2023-07-30T09:46:42;101648.34;;;19.12;100.00
36726;BME280;44936;52.086;5.150;2023-07-30T09:49:08;101646.63;;;19.10;100.00
36726;BME280;44936;52.086;5.150;2023-07-30T09:51:34;101647.34;;;19.18;100.00
36726;BME280;44936;52.086;5.150;2023-07-30T09:54:01;101648.28;;;19.15;100.00
36726;BME280;44936;52.086;5.150;2023-07-30T09:56:26;101680.94;;;19.22;100.00
36726;BME280;44936;52.086;5.150;2023-07-30T09:58:51;101678.44;;;19.14;100.00
36726;BME280;44936;52.086;5.150;2023-07-30T10:01:18;101683.75;;;19.14;100.00
36726;BME280;44936;52.086;5.150;2023-07-30T10:03:45;101697.84;;;19.19;100.00
36726;BME280;44936;52.086;5.150;2023-07-30T10:06:11;101700.66;;;19.12;100.00
36726;BME280;44936;52.086;5.150;2023-07-30T10:08:38;101686.38;;;19.16;100.00
36726;BME280;44936;52.086;5.150;2023-07-30T10:11:07;101687.78;;;19.35;100.00
36726;BME280;44936;52.086;5.150;2023-07-30T10:13:34;101696.31;;;19.52;100.00
36726;BME280;44936;52.086;5.150;2023-07-30T10:16:00;101692.44;;;19.69;100.00
36726;BME280;44936;52.086;5.150;2023-07-30T10:18:42;101685.03;;;19.83;100.00
36726;BME280;44936;52.086;5.150;2023-07-30T10:21:08;101694.59;;;19.92;100.00
36726;BME280;44936;52.086;5.150;2023-07-30T10:23:34;101684.56;;;19.64;100.00
36726;BME280;44936;52.086;5.150;2023-07-30T10:26:08;101697.03;;;19.62;100.00
36726;BME280;44936;52.086;5.150;2023-07-30T10:28:35;101698.16;;;19.49;100.00
36726;BME280;44936;52.086;5.150;2023-07-30T10:31:06;101719.94;;;19.69;100.00
36726;BME280;44936;52.086;5.150;2023-07-30T10:33:49;101713.75;;;19.67;100.00
36726;BME280;44936;52.086;5.150;2023-07-30T10:36:17;101721.47;;;19.81;100.00
36726;BME280;44936;52.086;5.150;2023-07-30T10:38:43;101722.22;;;19.86;100.00
36726;BME280;44936;52.086;5.150;2023-07-30T10:41:13;101723.56;;;19.65;100.00
36726;BME280;44936;52.086;5.150;2023-07-30T10:43:41;101725.88;;;19.82;100.00
36726;BME280;44936;52.086;5.150;2023-07-30T10:46:09;101723.09;;;19.87;100.00
36726;BME280;44936;52.086;5.150;2023-07-30T10:48:36;101699.38;;;19.76;100.00
36726;BME280;44936;52.086;5.150;2023-07-30T10:51:04;101709.47;;;20.02;100.00
36726;BME280;44936;52.086;5.150;2023-07-30T10:53:30;101716.09;;;20.23;100.00
36726;BME280;44936;52.086;5.150;2023-07-30T10:55:58;101733.69;;;20.30;100.00
36726;BME280;44936;52.086;5.150;2023-07-30T10:58:26;101711.38;;;19.97;100.00
36726;BME280;44936;52.086;5.150;2023-07-30T11:00:52;101736.13;;;20.00;100.00
36726;BME280;44936;52.086;5.150;2023-07-30T11:03:17;101736.59;;;20.19;100.00
36726;BME280;44936;52.086;5.150;2023-07-30T11:05:46;101736.72;;;20.15;100.00
36726;BME280;44936;52.086;5.150;2023-07-30T11:08:12;101720.78;;;20.12;100.00
36726;BME280;44936;52.086;5.150;2023-07-30T11:10:46;101726.06;;;20.15;100.00
36726;BME280;44936;52.086;5.150;2023-07-30T11:13:13;101715.59;;;20.07;100.00
36726;BME280;44936;52.086;5.150;2023-07-30T11:15:43;101746.78;;;20.00;100.00
36726;BME280;44936;52.086;5.150;2023-07-30T11:18:09;101735.78;;;19.75;100.00
36726;BME280;44936;52.086;5.150;2023-07-30T11:20:34;101737.25;;;19.90;100.00
36726;BME280;44936;52.086;5.150;2023-07-30T11:23:00;101736.06;;;20.03;100.00
36726;BME280;44936;52.086;5.150;2023-07-30T11:25:25;101752.13;;;20.00;100.00
36726;BME280;44936;52.086;5.150;2023-07-30T11:27:50;101759.09;;;20.04;100.00
36726;BME280;44936;52.086;5.150;2023-07-30T11:30:16;101746.50;;;20.13;100.00
36726;BME280;44936;52.086;5.150;2023-07-30T11:32:42;101754.28;;;20.22;100.00
36726;BME280;44936;52.086;5.150;2023-07-30T11:35:10;101749.97;;;20.18;100.00
36726;BME280;44936;52.086;5.150;2023-07-30T11:37:36;101748.75;;;20.32;100.00
36726;BME280;44936;52.086;5.150;2023-07-30T11:40:14;101749.41;;;20.44;100.00
36726;BME280;44936;52.086;5.150;2023-07-30T11:42:40;101748.09;;;20.61;100.00
36726;BME280;44936;52.086;5.150;2023-07-30T11:45:21;101722.41;;;20.57;100.00
36726;BME280;44936;52.086;5.150;2023-07-30T11:47:47;101749.84;;;20.62;100.00
36726;BME280;44936;52.086;5.150;2023-07-30T11:50:13;101739.22;;;20.61;100.00
36726;BME280;44936;52.086;5.150;2023-07-30T11:52:54;101737.09;;;20.36;100.00
36726;BME280;44936;52.086;5.150;2023-07-30T11:55:20;101741.19;;;20.13;100.00
36726;BME280;44936;52.086;5.150;2023-07-30T11:57:45;101753.38;;;20.23;100.00
36726;BME280;44936;52.086;5.150;2023-07-30T12:00:11;101750.66;;;20.26;100.00
36726;BME280;44936;52.086;5.150;2023-07-30T12:02:38;101764.03;;;20.23;100.00
36726;BME280;44936;52.086;5.150;2023-07-30T12:05:04;101752.53;;;20.21;100.00
36726;BME280;44936;52.086;5.150;2023-07-30T12:07:32;101745.25;;;20.29;100.00
36726;BME280;44936;52.086;5.150;2023-07-30T12:10:11;101740.72;;;20.34;100.00
36726;BME280;44936;52.086;5.150;2023-07-30T12:12:37;101757.25;;;20.50;100.00
36726;BME280;44936;52.086;5.150;2023-07-30T12:15:11;101729.81;;;20.45;100.00
36726;BME280;44936;52.086;5.150;2023-07-30T12:17:38;101737.16;;;20.33;100.00
36726;BME280;44936;52.086;5.150;2023-07-30T12:20:04;101747.03;;;20.28;100.00
36726;BME280;44936;52.086;5.150;2023-07-30T12:22:34;101743.44;;;20.31;100.00
36726;BME280;44936;52.086;5.150;2023-07-30T12:25:04;101744.22;;;20.36;100.00
36726;BME280;44936;52.086;5.150;2023-07-30T12:27:30;101737.91;;;20.38;100.00
36726;BME280;44936;52.086;5.150;2023-07-30T12:29:55;101744.38;;;20.28;100.00
36726;BME280;44936;52.086;5.150;2023-07-30T12:32:21;101744.28;;;20.33;100.00
36726;BME280;44936;52.086;5.150;2023-07-30T12:34:46;101748.34;;;20.49;100.00
36726;BME280;44936;52.086;5.150;2023-07-30T12:37:11;101742.31;;;20.41;100.00